createdAt,value
2019-02-17T00:00:34.313Z,-2.08
2019-02-17T00:01:34.306Z,-2.10
2019-02-17T00:02:34.299Z,-2.15
2019-02-17T00:03:34.305Z,-2.21
2019-02-17T00:04:34.271Z,-2.18
2019-02-17T00:05:34.272Z,-2.15
2019-02-17T00:06:34.242Z,-2.12
2019-02-17T00:07:34.235Z,-2.18
2019-02-17T00:08:34.221Z,-2.09
2019-02-17T00:09:34.236Z,-2.09
2019-02-17T00:10:34.235Z,-2.13
2019-02-17T00:11:34.197Z,-2.16
2019-02-17T00:12:34.178Z,-2.20
2019-02-17T00:13:34.167Z,-2.13
2019-02-17T00:14:34.155Z,-2.13
2019-02-17T00:15:34.155Z,-2.15
2019-02-17T00:16:34.165Z,-2.16
2019-02-17T00:17:34.142Z,-2.30
2019-02-17T00:18:34.112Z,-2.15
2019-02-17T00:19:34.097Z,-2.13
2019-02-17T00:20:34.093Z,-2.20
2019-02-17T00:21:34.095Z,-2.24
2019-02-17T00:22:34.080Z,-2.20
2019-02-17T00:23:34.057Z,-2.27
2019-02-17T00:24:34.046Z,-2.26
2019-02-17T00:25:34.077Z,-2.26
2019-02-17T00:26:34.077Z,-2.34
2019-02-17T00:27:34.037Z,-2.35
2019-02-17T00:28:34.032Z,-2.34
2019-02-17T00:29:33.987Z,-2.26
2019-02-17T00:30:33.983Z,-2.34
2019-02-17T00:31:33.976Z,-2.27
2019-02-17T00:32:33.991Z,-2.35
2019-02-17T00:33:33.953Z,-2.34
2019-02-17T00:34:33.964Z,-2.34
2019-02-17T00:35:33.921Z,-2.35
2019-02-17T00:36:33.910Z,-2.37
2019-02-17T00:37:33.918Z,-2.45
2019-02-17T00:38:33.894Z,-2.37
2019-02-17T00:39:33.895Z,-2.39
2019-02-17T00:40:33.873Z,-2.39
2019-02-17T00:41:33.853Z,-2.43
2019-02-17T00:42:33.853Z,-2.43
2019-02-17T00:43:33.848Z,-2.40
2019-02-17T00:44:33.830Z,-2.35
2019-02-17T00:45:33.813Z,-2.48
2019-02-17T00:46:33.801Z,-2.37
2019-02-17T00:47:33.805Z,-2.48
2019-02-17T00:48:33.799Z,-2.50
2019-02-17T00:49:33.793Z,-2.53
2019-02-17T00:50:33.764Z,-2.55
2019-02-17T00:51:33.824Z,-2.61
2019-02-17T00:52:33.734Z,-2.56
2019-02-17T00:53:33.734Z,-2.50
2019-02-17T00:54:33.719Z,-2.53
2019-02-17T00:55:33.722Z,-2.53
2019-02-17T00:56:33.688Z,-2.50
2019-02-17T00:57:33.681Z,-2.63
2019-02-17T00:58:33.672Z,-2.49
2019-02-17T00:59:33.699Z,-2.55
2019-02-17T01:00:33.643Z,-2.55
2019-02-17T01:01:33.653Z,-2.56
2019-02-17T01:02:33.657Z,-2.68
2019-02-17T01:03:33.650Z,-2.61
2019-02-17T01:04:33.607Z,-2.68
2019-02-17T01:05:33.635Z,-2.66
2019-02-17T01:06:33.590Z,-2.73
2019-02-17T01:07:33.583Z,-2.74
2019-02-17T01:08:33.602Z,-2.66
2019-02-17T01:09:33.556Z,-2.63
2019-02-17T01:10:33.562Z,-2.63
2019-02-17T01:11:33.532Z,-2.71
2019-02-17T01:12:33.521Z,-2.71
2019-02-17T01:13:33.530Z,-2.67
2019-02-17T01:14:33.502Z,-2.67
2019-02-17T01:15:33.494Z,-2.66
2019-02-17T01:16:33.549Z,-2.67
2019-02-17T01:17:33.501Z,-2.55
2019-02-17T01:18:33.453Z,-2.73
2019-02-17T01:19:33.443Z,-2.74
2019-02-17T01:20:33.435Z,-2.85
2019-02-17T01:21:33.439Z,-2.82
2019-02-17T01:22:33.451Z,-2.81
2019-02-17T01:23:33.403Z,-2.81
2019-02-17T01:24:33.402Z,-2.74
2019-02-17T01:25:33.459Z,-2.85
2019-02-17T01:26:33.372Z,-2.77
2019-02-17T01:27:33.366Z,-2.88
2019-02-17T01:28:33.358Z,-2.86
2019-02-17T01:29:33.337Z,-2.85
2019-02-17T01:30:33.314Z,-2.86
2019-02-17T01:31:33.333Z,-2.77
2019-02-17T01:32:33.326Z,-2.82
2019-02-17T01:33:33.295Z,-2.89
2019-02-17T01:34:33.285Z,-2.88
2019-02-17T01:35:33.268Z,-2.92
2019-02-17T01:36:33.274Z,-2.85
2019-02-17T01:37:33.307Z,-2.79
2019-02-17T01:38:33.245Z,-2.91
2019-02-17T01:39:33.218Z,-2.81
2019-02-17T01:40:33.242Z,-2.89
2019-02-17T01:42:24.424Z,-2.84
2019-02-17T01:43:24.419Z,-2.86
2019-02-17T01:44:24.394Z,-2.86
2019-02-17T01:45:24.393Z,-2.88
2019-02-17T01:46:24.376Z,-2.91
2019-02-17T01:47:24.374Z,-2.89
2019-02-17T01:48:24.353Z,-2.85
2019-02-17T01:49:24.350Z,-2.84
2019-02-17T01:50:24.333Z,-2.92
2019-02-17T01:51:24.322Z,-2.88
2019-02-17T01:52:24.305Z,-2.89
2019-02-17T01:53:24.319Z,-2.96
2019-02-17T01:54:24.311Z,-2.88
2019-02-17T01:55:24.290Z,-2.88
2019-02-17T01:56:24.265Z,-2.85
2019-02-17T01:57:24.267Z,-2.94
2019-02-17T01:58:24.252Z,-2.91
2019-02-17T01:59:30.704Z,-3.00
2019-02-17T02:00:25.223Z,-2.89
2019-02-17T02:01:24.278Z,-2.89
2019-02-17T02:02:24.230Z,-2.92
2019-02-17T02:03:24.185Z,-2.92
2019-02-17T02:04:24.197Z,-2.97
2019-02-17T02:05:24.172Z,-2.97
2019-02-17T02:06:24.158Z,-2.92
2019-02-17T02:07:24.150Z,-3.05
2019-02-17T02:08:24.139Z,-3.10
2019-02-17T02:09:24.146Z,-3.10
2019-02-17T02:10:24.130Z,-3.10
2019-02-17T02:11:24.109Z,-3.02
2019-02-17T02:12:24.103Z,-3.09
2019-02-17T02:13:24.088Z,-3.09
2019-02-17T02:14:24.069Z,-3.12
2019-02-17T02:15:31.154Z,-3.10
2019-02-17T02:16:24.045Z,-3.07
2019-02-17T02:17:24.042Z,-3.07
2019-02-17T02:18:24.023Z,-3.09
2019-02-17T02:19:24.023Z,-3.06
2019-02-17T02:20:24.017Z,-3.05
2019-02-17T02:21:23.994Z,-3.06
2019-02-17T02:22:23.980Z,-3.15
2019-02-17T02:23:23.982Z,-3.10
2019-02-17T02:24:23.966Z,-3.09
2019-02-17T02:25:23.975Z,-3.10
2019-02-17T02:26:23.966Z,-3.03
2019-02-17T02:27:23.936Z,-3.14
2019-02-17T02:28:23.923Z,-3.10
2019-02-17T02:29:23.903Z,-3.12
2019-02-17T02:30:23.946Z,-3.12
2019-02-17T02:31:23.897Z,-3.09
2019-02-17T02:32:23.868Z,-3.07
2019-02-17T02:33:23.860Z,-3.09
2019-02-17T02:34:23.857Z,-3.14
2019-02-17T02:35:23.833Z,-3.17
2019-02-17T02:36:23.837Z,-3.09
2019-02-17T02:37:23.820Z,-3.18
2019-02-17T02:38:23.804Z,-3.17
2019-02-17T02:39:23.789Z,-3.18
2019-02-17T02:40:23.780Z,-3.17
2019-02-17T02:41:33.943Z,-3.18
2019-02-17T02:42:24.791Z,-3.18
2019-02-17T02:43:23.778Z,-3.21
2019-02-17T02:44:23.752Z,-3.20
2019-02-17T02:45:23.744Z,-3.21
2019-02-17T02:46:23.722Z,-3.24
2019-02-17T02:47:31.079Z,-3.30
2019-02-17T02:48:23.699Z,-3.30
2019-02-17T02:49:23.688Z,-3.25
2019-02-17T02:50:23.688Z,-3.24
2019-02-17T02:51:23.691Z,-3.35
2019-02-17T02:52:23.665Z,-3.28
2019-02-17T02:53:23.645Z,-3.28
2019-02-17T02:54:23.638Z,-3.35
2019-02-17T02:55:23.620Z,-3.25
2019-02-17T02:56:23.624Z,-3.35
2019-02-17T02:57:23.600Z,-3.30
2019-02-17T02:58:23.622Z,-3.39
2019-02-17T02:59:23.575Z,-3.38
2019-02-17T03:00:23.572Z,-3.28
2019-02-17T03:01:23.562Z,-3.28
2019-02-17T03:02:23.560Z,-3.31
2019-02-17T03:03:23.537Z,-3.35
2019-02-17T03:04:23.589Z,-3.33
2019-02-17T03:05:23.510Z,-3.30
2019-02-17T03:06:23.513Z,-3.33
2019-02-17T03:07:23.509Z,-3.33
2019-02-17T03:08:23.491Z,-3.38
2019-02-17T03:09:23.489Z,-3.33
2019-02-17T03:10:23.484Z,-3.36
2019-02-17T03:11:23.455Z,-3.38
2019-02-17T03:12:23.437Z,-3.38
2019-02-17T03:13:23.441Z,-3.41
2019-02-17T03:14:23.420Z,-3.49
2019-02-17T03:15:23.407Z,-3.52
2019-02-17T03:16:23.409Z,-3.43
2019-02-17T03:17:23.394Z,-3.53
2019-02-17T03:18:23.383Z,-3.52
2019-02-17T03:19:23.384Z,-3.46
2019-02-17T03:20:23.362Z,-3.59
2019-02-17T03:21:23.373Z,-3.53
2019-02-17T03:22:23.343Z,-3.59
2019-02-17T03:23:31.211Z,-3.63
2019-02-17T03:24:23.306Z,-3.64
2019-02-17T03:25:23.350Z,-3.59
2019-02-17T03:26:23.284Z,-3.64
2019-02-17T03:27:23.274Z,-3.54
2019-02-17T03:28:23.310Z,-3.60
2019-02-17T03:29:23.271Z,-3.66
2019-02-17T03:30:23.257Z,-3.60
2019-02-17T03:31:23.235Z,-3.56
2019-02-17T03:32:23.232Z,-3.53
2019-02-17T03:33:23.219Z,-3.60
2019-02-17T03:34:23.236Z,-3.63
2019-02-17T03:35:23.191Z,-3.59
2019-02-17T03:36:23.186Z,-3.60
2019-02-17T03:37:23.194Z,-3.63
2019-02-17T03:38:23.156Z,-3.71
2019-02-17T03:39:23.189Z,-3.72
2019-02-17T03:40:23.146Z,-3.62
2019-02-17T03:41:23.124Z,-3.69
2019-02-17T03:42:23.150Z,-3.69
2019-02-17T03:43:23.099Z,-3.71
2019-02-17T03:44:23.094Z,-3.75
2019-02-17T03:45:23.081Z,-3.78
2019-02-17T03:46:23.077Z,-3.76
2019-02-17T03:47:23.061Z,-3.76
2019-02-17T03:48:23.053Z,-3.76
2019-02-17T03:49:23.047Z,-3.76
2019-02-17T03:50:23.027Z,-3.76
2019-02-17T03:51:23.020Z,-3.72
2019-02-17T03:52:23.026Z,-3.72
2019-02-17T03:53:22.998Z,-3.76
2019-02-17T03:54:22.985Z,-3.79
2019-02-17T03:55:22.996Z,-3.83
2019-02-17T03:56:22.955Z,-3.79
2019-02-17T03:57:23.007Z,-3.82
2019-02-17T03:58:22.941Z,-3.81
2019-02-17T03:59:22.933Z,-3.85
2019-02-17T04:00:22.929Z,-3.88
2019-02-17T04:01:22.905Z,-3.81
2019-02-17T04:02:22.899Z,-3.83
2019-02-17T04:03:22.915Z,-3.82
2019-02-17T04:04:22.873Z,-3.86
2019-02-17T04:05:22.872Z,-3.81
2019-02-17T04:06:22.905Z,-3.85
2019-02-17T04:07:22.838Z,-3.93
2019-02-17T04:08:22.854Z,-3.86
2019-02-17T04:09:22.839Z,-3.91
2019-02-17T04:10:22.833Z,-3.85
2019-02-17T04:11:22.803Z,-3.86
2019-02-17T04:12:22.823Z,-3.93
2019-02-17T04:13:22.779Z,-3.91
2019-02-17T04:14:22.791Z,-3.86
2019-02-17T04:15:22.769Z,-3.81
2019-02-17T04:16:22.744Z,-3.86
2019-02-17T04:17:22.782Z,-3.91
2019-02-17T04:18:22.750Z,-3.90
2019-02-17T04:19:22.713Z,-3.93
2019-02-17T04:20:22.720Z,-3.96
2019-02-17T04:21:22.720Z,-3.93
2019-02-17T04:22:22.686Z,-3.93
2019-02-17T04:23:30.756Z,-3.94
2019-02-17T04:24:23.649Z,-3.97
2019-02-17T04:25:22.664Z,-3.97
2019-02-17T04:26:22.635Z,-3.97
2019-02-17T04:27:22.625Z,-3.99
2019-02-17T04:28:22.646Z,-3.97
2019-02-17T04:29:22.617Z,-3.96
2019-02-17T04:30:29.245Z,-3.99
2019-02-17T04:31:23.584Z,-4.04
2019-02-17T04:32:22.612Z,-4.10
2019-02-17T04:33:22.639Z,-3.96
2019-02-17T04:34:22.557Z,-3.97
2019-02-17T04:35:22.535Z,-3.99
2019-02-17T04:36:22.534Z,-3.94
2019-02-17T04:37:22.523Z,-4.03
2019-02-17T04:38:22.541Z,-4.04
2019-02-17T04:39:22.500Z,-3.96
2019-02-17T04:40:22.493Z,-3.97
2019-02-17T04:41:22.499Z,-3.97
2019-02-17T04:42:22.466Z,-4.11
2019-02-17T04:43:22.459Z,-3.91
2019-02-17T04:44:22.452Z,-3.97
2019-02-17T04:45:22.427Z,-4.07
2019-02-17T04:46:22.425Z,-4.04
2019-02-17T04:47:22.446Z,-4.11
2019-02-17T04:48:22.399Z,-4.03
2019-02-17T04:49:22.413Z,-4.07
2019-02-17T04:50:22.380Z,-4.00
2019-02-17T04:51:22.394Z,-4.03
2019-02-17T04:52:22.350Z,-4.03
2019-02-17T04:53:22.349Z,-3.97
2019-02-17T04:54:22.365Z,-4.04
2019-02-17T04:55:22.331Z,-4.06
2019-02-17T04:56:22.332Z,-4.11
2019-02-17T04:57:22.305Z,-4.04
2019-02-17T04:58:22.307Z,-4.03
2019-02-17T04:59:22.305Z,-4.01
2019-02-17T05:00:22.269Z,-4.04
2019-02-17T05:01:22.289Z,-4.07
2019-02-17T05:02:22.244Z,-4.06
2019-02-17T05:03:22.239Z,-4.06
2019-02-17T05:04:22.230Z,-4.12
2019-02-17T05:05:22.223Z,-4.15
2019-02-17T05:06:22.227Z,-4.17
2019-02-17T05:07:22.195Z,-4.11
2019-02-17T05:08:22.188Z,-4.21
2019-02-17T05:09:22.172Z,-4.11
2019-02-17T05:10:22.161Z,-4.10
2019-02-17T05:11:22.172Z,-4.14
2019-02-17T05:12:22.156Z,-4.11
2019-02-17T05:13:22.157Z,-4.12
2019-02-17T05:14:22.153Z,-4.21
2019-02-17T05:15:22.111Z,-4.20
2019-02-17T05:16:22.092Z,-4.14
2019-02-17T05:17:22.123Z,-4.21
2019-02-17T05:18:22.096Z,-4.11
2019-02-17T05:19:22.063Z,-4.14
2019-02-17T05:20:22.048Z,-4.22
2019-02-17T05:21:22.037Z,-4.17
2019-02-17T05:22:22.046Z,-4.38
2019-02-17T05:23:22.056Z,-4.42
2019-02-17T05:24:22.016Z,-4.22
2019-02-17T05:25:21.993Z,-4.22
2019-02-17T05:26:21.990Z,-4.29
2019-02-17T05:27:21.983Z,-4.28
2019-02-17T05:28:21.972Z,-4.33
2019-02-17T05:29:21.959Z,-4.30
2019-02-17T05:30:21.947Z,-4.32
2019-02-17T05:31:21.939Z,-4.25
2019-02-17T05:32:21.919Z,-4.32
2019-02-17T05:33:21.949Z,-4.30
2019-02-17T05:34:21.922Z,-4.36
2019-02-17T05:35:21.912Z,-4.32
2019-02-17T05:36:21.965Z,-4.35
2019-02-17T05:37:21.902Z,-4.36
2019-02-17T05:38:21.891Z,-4.33
2019-02-17T05:39:21.860Z,-4.38
2019-02-17T05:40:21.853Z,-4.35
2019-02-17T05:41:21.826Z,-4.33
2019-02-17T05:42:21.816Z,-4.36
2019-02-17T05:43:21.830Z,-4.36
2019-02-17T05:44:21.846Z,-4.40
2019-02-17T05:45:21.814Z,-4.35
2019-02-17T05:46:21.776Z,-4.36
2019-02-17T05:47:21.797Z,-4.38
2019-02-17T05:48:21.757Z,-4.43
2019-02-17T05:49:21.737Z,-4.40
2019-02-17T05:50:21.747Z,-4.38
2019-02-17T05:51:21.721Z,-4.35
2019-02-17T05:52:21.716Z,-4.42
2019-02-17T05:53:21.697Z,-4.46
2019-02-17T05:54:21.695Z,-4.43
2019-02-17T05:55:21.700Z,-4.46
2019-02-17T05:56:21.722Z,-4.46
2019-02-17T05:57:21.665Z,-4.40
2019-02-17T05:58:21.652Z,-4.49
2019-02-17T05:59:21.656Z,-4.53
2019-02-17T06:00:21.623Z,-4.46
2019-02-17T06:01:21.619Z,-4.47
2019-02-17T06:02:21.609Z,-4.58
2019-02-17T06:03:21.612Z,-4.47
2019-02-17T06:04:21.578Z,-4.51
2019-02-17T06:05:21.574Z,-4.53
2019-02-17T06:06:21.559Z,-4.49
2019-02-17T06:07:21.565Z,-4.49
2019-02-17T06:08:21.541Z,-4.53
2019-02-17T06:09:21.567Z,-4.49
2019-02-17T06:10:21.551Z,-4.50
2019-02-17T06:11:21.507Z,-4.50
2019-02-17T06:12:21.495Z,-4.39
2019-02-17T06:13:21.512Z,-4.47
2019-02-17T06:14:21.477Z,-4.51
2019-02-17T06:15:21.491Z,-4.53
2019-02-17T06:16:21.464Z,-4.46
2019-02-17T06:17:21.453Z,-4.49
2019-02-17T06:18:21.430Z,-4.54
2019-02-17T06:19:21.427Z,-4.47
2019-02-17T06:20:21.439Z,-4.53
2019-02-17T06:21:21.397Z,-4.58
2019-02-17T06:22:21.420Z,-4.53
2019-02-17T06:23:21.376Z,-4.47
2019-02-17T06:24:21.363Z,-4.56
2019-02-17T06:25:21.365Z,-4.53
2019-02-17T06:26:21.340Z,-4.47
2019-02-17T06:27:21.343Z,-4.50
2019-02-17T06:28:21.318Z,-4.54
2019-02-17T06:29:21.308Z,-4.46
2019-02-17T06:30:21.315Z,-4.46
2019-02-17T06:31:21.319Z,-4.43
2019-02-17T06:32:21.293Z,-4.39
2019-02-17T06:33:21.266Z,-4.42
2019-02-17T06:34:21.260Z,-4.42
2019-02-17T06:35:21.242Z,-4.39
2019-02-17T06:36:21.284Z,-4.43
2019-02-17T06:37:21.238Z,-4.42
2019-02-17T06:38:21.229Z,-4.47
2019-02-17T06:39:21.213Z,-4.43
2019-02-17T06:40:21.205Z,-4.49
2019-02-17T06:41:21.229Z,-4.53
2019-02-17T06:42:21.171Z,-4.35
2019-02-17T06:43:21.161Z,-4.46
2019-02-17T06:44:21.147Z,-4.40
2019-02-17T06:45:21.144Z,-4.35
2019-02-17T06:46:21.187Z,-4.49
2019-02-17T06:47:21.124Z,-4.47
2019-02-17T06:48:21.118Z,-4.46
2019-02-17T06:49:21.117Z,-4.51
2019-02-17T06:50:21.099Z,-4.43
2019-02-17T06:51:21.100Z,-4.38
2019-02-17T06:52:21.066Z,-4.42
2019-02-17T06:53:21.058Z,-4.29
2019-02-17T06:54:21.055Z,-4.35
2019-02-17T06:55:21.028Z,-4.42
2019-02-17T06:56:21.028Z,-4.43
2019-02-17T06:57:21.021Z,-4.42
2019-02-17T06:58:20.991Z,-4.42
2019-02-17T06:59:20.996Z,-4.40
2019-02-17T07:00:20.989Z,-4.40
2019-02-17T07:01:24.648Z,-4.39
2019-02-17T07:02:20.959Z,-4.32
2019-02-17T07:03:20.967Z,-4.29
2019-02-17T07:04:20.950Z,-4.35
2019-02-17T07:05:20.956Z,-4.33
2019-02-17T07:06:20.929Z,-4.25
2019-02-17T07:07:20.930Z,-4.24
2019-02-17T07:08:20.896Z,-4.24
2019-02-17T07:09:20.878Z,-4.30
2019-02-17T07:10:20.880Z,-4.17
2019-02-17T07:11:20.903Z,-4.21
2019-02-17T07:12:20.873Z,-4.20
2019-02-17T07:13:20.837Z,-4.06
2019-02-17T07:14:20.824Z,-4.14
2019-02-17T07:15:20.815Z,-4.18
2019-02-17T07:16:20.803Z,-4.11
2019-02-17T07:17:20.819Z,-4.07
2019-02-17T07:18:20.783Z,-3.93
2019-02-17T07:19:20.774Z,-4.00
2019-02-17T07:20:20.768Z,-3.90
2019-02-17T07:21:20.744Z,-3.91
2019-02-17T07:22:20.758Z,-3.82
2019-02-17T07:23:20.756Z,-3.91
2019-02-17T07:24:20.722Z,-3.76
2019-02-17T07:25:29.580Z,-3.75
2019-02-17T07:26:21.726Z,-3.67
2019-02-17T07:27:20.717Z,-3.72
2019-02-17T07:28:20.685Z,-3.66
2019-02-17T07:29:20.664Z,-3.57
2019-02-17T07:30:20.655Z,-3.66
2019-02-17T07:31:22.532Z,-3.59
2019-02-17T07:32:20.674Z,-3.48
2019-02-17T07:33:20.627Z,-3.42
2019-02-17T07:34:20.625Z,-3.38
2019-02-17T07:35:20.597Z,-3.27
2019-02-17T07:36:22.114Z,-3.31
2019-02-17T07:37:20.584Z,-3.27
2019-02-17T07:38:20.634Z,-3.24
2019-02-17T07:39:20.557Z,-3.20
2019-02-17T07:40:20.537Z,-3.05
2019-02-17T07:41:20.535Z,-3.06
2019-02-17T07:42:20.524Z,-3.09
2019-02-17T07:43:20.553Z,-2.94
2019-02-17T07:44:20.493Z,-2.96
2019-02-17T07:45:20.487Z,-2.86
2019-02-17T07:46:20.477Z,-2.88
2019-02-17T07:47:20.487Z,-2.79
2019-02-17T07:48:20.462Z,-2.77
2019-02-17T07:49:20.464Z,-2.74
2019-02-17T07:50:20.433Z,-2.61
2019-02-17T07:51:20.423Z,-2.56
2019-02-17T07:52:20.420Z,-2.63
2019-02-17T07:53:20.407Z,-2.52
2019-02-17T07:54:20.393Z,-2.32
2019-02-17T07:55:20.395Z,-2.27
2019-02-17T07:56:20.375Z,-2.26
2019-02-17T07:57:20.384Z,-2.18
2019-02-17T07:58:20.340Z,-2.13
2019-02-17T07:59:20.337Z,-2.03
2019-02-17T08:00:20.354Z,-2.05
2019-02-17T08:01:20.336Z,-1.91
2019-02-17T08:02:20.310Z,-1.88
2019-02-17T08:03:20.311Z,-1.79
2019-02-17T08:04:20.294Z,-1.77
2019-02-17T08:05:20.289Z,-1.69
2019-02-17T08:06:20.327Z,-1.52
2019-02-17T08:07:20.248Z,-1.58
2019-02-17T08:08:20.259Z,-1.45
2019-02-17T08:09:20.247Z,-1.45
2019-02-17T08:10:20.210Z,-1.34
2019-02-17T08:11:20.202Z,-1.35
2019-02-17T08:12:20.194Z,-1.30
2019-02-17T08:13:20.208Z,-1.19
2019-02-17T08:14:20.189Z,-1.07
2019-02-17T08:15:20.166Z,-1.09
2019-02-17T08:16:20.145Z,-1.09
2019-02-17T08:17:20.135Z,-0.97
2019-02-17T08:18:20.143Z,-0.80
2019-02-17T08:19:20.132Z,-0.83
2019-02-17T08:20:20.109Z,-0.83
2019-02-17T08:21:20.096Z,-0.72
2019-02-17T08:22:20.143Z,-0.64
2019-02-17T08:23:20.076Z,-0.57
2019-02-17T08:24:20.055Z,-0.52
2019-02-17T08:25:22.124Z,-0.44
2019-02-17T08:26:20.039Z,-0.37
2019-02-17T08:27:20.022Z,-0.31
2019-02-17T08:28:20.026Z,-0.31
2019-02-17T08:29:20.046Z,-0.25
2019-02-17T08:30:20.016Z,-0.21
2019-02-17T08:31:20.003Z,-0.08
2019-02-17T08:32:19.972Z,0.03
2019-02-17T08:33:19.984Z,-0.10
2019-02-17T08:34:19.958Z,0.02
2019-02-17T08:35:19.937Z,0.08
2019-02-17T08:36:19.943Z,0.17
2019-02-17T08:37:19.911Z,0.24
2019-02-17T08:38:19.901Z,0.26
2019-02-17T08:39:19.894Z,0.23
2019-02-17T08:40:19.889Z,0.39
2019-02-17T08:41:19.924Z,0.44
2019-02-17T08:42:19.861Z,0.42
2019-02-17T08:43:19.864Z,0.55
2019-02-17T08:44:19.845Z,0.66
2019-02-17T08:45:19.829Z,0.72
2019-02-17T08:46:19.840Z,0.79
2019-02-17T08:47:19.811Z,0.90
2019-02-17T08:48:19.831Z,0.91
2019-02-17T08:49:19.804Z,0.93
2019-02-17T08:50:20.134Z,1.00
2019-02-17T08:51:19.770Z,1.06
2019-02-17T08:52:19.750Z,1.05
2019-02-17T08:53:19.747Z,1.14
2019-02-17T08:54:19.764Z,1.24
2019-02-17T08:55:19.738Z,1.36
2019-02-17T08:56:19.747Z,1.42
2019-02-17T08:57:19.705Z,1.47
2019-02-17T08:58:19.706Z,1.59
2019-02-17T08:59:19.689Z,1.59
2019-02-17T09:00:19.670Z,1.70
2019-02-17T09:01:19.669Z,1.72
2019-02-17T09:02:19.636Z,1.93
2019-02-17T09:03:19.676Z,1.98
2019-02-17T09:04:19.633Z,2.03
2019-02-17T09:05:19.630Z,2.06
2019-02-17T09:06:19.609Z,2.12
2019-02-17T09:07:19.599Z,2.27
2019-02-17T09:08:19.588Z,2.27
2019-02-17T09:09:19.585Z,2.38
2019-02-17T09:10:19.561Z,2.41
2019-02-17T09:11:19.574Z,2.45
2019-02-17T09:12:19.527Z,2.64
2019-02-17T09:13:19.523Z,2.71
2019-02-17T09:14:19.527Z,2.67
2019-02-17T09:15:19.504Z,2.67
2019-02-17T09:16:19.494Z,2.79
2019-02-17T09:17:19.514Z,2.84
2019-02-17T09:18:19.479Z,2.93
2019-02-17T09:19:19.463Z,3.02
2019-02-17T09:20:19.455Z,3.14
2019-02-17T09:21:19.438Z,3.28
2019-02-17T09:22:19.429Z,3.29
2019-02-17T09:23:19.408Z,3.36
2019-02-17T09:24:19.400Z,3.42
2019-02-17T09:25:19.406Z,3.54
2019-02-17T09:26:19.385Z,3.58
2019-02-17T09:27:19.363Z,3.61
2019-02-17T09:28:19.378Z,3.70
2019-02-17T09:29:19.350Z,3.75
2019-02-17T09:30:19.364Z,3.78
2019-02-17T09:31:19.337Z,3.96
2019-02-17T09:32:19.309Z,4.06
2019-02-17T09:33:19.325Z,4.04
2019-02-17T09:34:19.329Z,4.20
2019-02-17T09:35:19.290Z,4.36
2019-02-17T09:36:19.274Z,4.36
2019-02-17T09:37:19.260Z,4.45
2019-02-17T09:38:19.278Z,4.40
2019-02-17T09:39:19.234Z,4.52
2019-02-17T09:40:19.266Z,4.52
2019-02-17T09:41:19.234Z,4.69
2019-02-17T09:42:19.215Z,4.80
2019-02-17T09:43:19.193Z,4.82
2019-02-17T09:44:19.193Z,4.94
2019-02-17T09:45:19.166Z,5.03
2019-02-17T09:46:19.159Z,5.02
2019-02-17T09:47:19.161Z,5.17
2019-02-17T09:48:19.133Z,5.17
2019-02-17T09:49:19.139Z,5.30
2019-02-17T09:50:19.124Z,5.42
2019-02-17T09:51:19.111Z,5.43
2019-02-17T09:52:19.128Z,5.54
2019-02-17T09:53:19.143Z,5.64
2019-02-17T09:54:19.072Z,5.67
2019-02-17T09:55:19.070Z,5.75
2019-02-17T09:56:19.091Z,5.81
2019-02-17T09:57:19.064Z,5.86
2019-02-17T09:58:19.022Z,5.91
2019-02-17T09:59:19.065Z,5.93
2019-02-17T10:00:19.004Z,6.08
2019-02-17T10:01:18.984Z,6.15
2019-02-17T10:02:26.343Z,6.19
2019-02-17T10:03:19.968Z,6.22
2019-02-17T10:04:18.952Z,6.27
2019-02-17T10:05:18.981Z,6.36
2019-02-17T10:06:18.943Z,6.38
2019-02-17T10:07:18.936Z,6.46
2019-02-17T10:08:18.915Z,6.51
2019-02-17T10:09:18.896Z,6.49
2019-02-17T10:10:18.892Z,6.49
2019-02-17T10:11:18.883Z,6.61
2019-02-17T10:12:18.911Z,6.66
2019-02-17T10:13:18.870Z,6.70
2019-02-17T10:14:18.881Z,6.66
2019-02-17T10:15:18.859Z,6.77
2019-02-17T10:16:18.837Z,6.80
2019-02-17T10:17:18.823Z,6.84
2019-02-17T10:18:18.819Z,6.81
2019-02-17T10:19:18.786Z,6.89
2019-02-17T10:20:18.783Z,6.89
2019-02-17T10:21:18.763Z,7.02
2019-02-17T10:22:18.768Z,6.91
2019-02-17T10:23:18.770Z,7.02
2019-02-17T10:24:18.741Z,7.06
2019-02-17T10:25:18.736Z,7.05
2019-02-17T10:26:18.717Z,7.07
2019-02-17T10:27:18.725Z,7.12
2019-02-17T10:28:18.694Z,7.17
2019-02-17T10:29:18.682Z,7.20
2019-02-17T10:30:18.676Z,7.25
2019-02-17T10:31:18.679Z,7.24
2019-02-17T10:32:18.713Z,7.39
2019-02-17T10:33:18.640Z,7.35
2019-02-17T10:34:18.642Z,7.53
2019-02-17T10:35:18.630Z,7.57
2019-02-17T10:36:18.606Z,7.55
2019-02-17T10:37:18.606Z,7.64
2019-02-17T10:38:18.611Z,7.68
2019-02-17T10:39:18.577Z,7.75
2019-02-17T10:40:18.577Z,7.74
2019-02-17T10:41:18.551Z,7.80
2019-02-17T10:42:18.571Z,7.79
2019-02-17T10:43:18.536Z,7.85
2019-02-17T10:44:18.529Z,7.80
2019-02-17T10:45:18.534Z,7.93
2019-02-17T10:46:18.500Z,7.92
2019-02-17T10:47:18.518Z,7.97
2019-02-17T10:48:18.477Z,8.10
2019-02-17T10:49:19.403Z,8.12
2019-02-17T10:50:19.213Z,8.12
2019-02-17T10:51:18.442Z,8.15
2019-02-17T10:52:18.430Z,8.23
2019-02-17T10:53:18.442Z,8.28
2019-02-17T10:54:18.409Z,8.36
2019-02-17T10:55:18.398Z,8.41
2019-02-17T10:56:18.378Z,8.47
2019-02-17T10:57:18.380Z,8.50
2019-02-17T10:58:18.381Z,8.55
2019-02-17T10:59:18.369Z,8.62
2019-02-17T11:00:18.341Z,8.65
2019-02-17T11:01:18.349Z,8.73
2019-02-17T11:02:18.320Z,8.84
2019-02-17T11:03:18.328Z,8.89
2019-02-17T11:04:18.294Z,8.96
2019-02-17T11:05:18.295Z,9.10
2019-02-17T11:06:18.293Z,9.13
2019-02-17T11:07:18.263Z,9.20
2019-02-17T11:08:18.276Z,9.29
2019-02-17T11:09:18.258Z,9.42
2019-02-17T11:10:18.229Z,9.47
2019-02-17T11:11:18.211Z,9.56
2019-02-17T11:12:18.210Z,9.60
2019-02-17T11:13:18.213Z,9.69
2019-02-17T11:14:18.177Z,9.76
2019-02-17T11:15:18.195Z,9.78
2019-02-17T11:16:18.176Z,9.91
2019-02-17T11:17:18.143Z,9.99
2019-02-17T11:18:18.150Z,10.11
2019-02-17T11:19:18.128Z,10.17
2019-02-17T11:20:18.124Z,10.22
2019-02-17T11:21:18.143Z,10.29
2019-02-17T11:22:23.080Z,10.41
2019-02-17T11:23:19.080Z,10.42
2019-02-17T11:24:18.083Z,10.48
2019-02-17T11:25:18.071Z,10.56
2019-02-17T11:26:18.046Z,10.53
2019-02-17T11:27:18.097Z,10.67
2019-02-17T11:28:18.021Z,10.68
2019-02-17T11:29:18.007Z,10.64
2019-02-17T11:30:18.023Z,10.78
2019-02-17T11:31:18.028Z,10.74
2019-02-17T11:32:17.974Z,10.68
2019-02-17T11:33:17.968Z,10.76
2019-02-17T11:34:17.955Z,10.76
2019-02-17T11:35:17.972Z,10.82
2019-02-17T11:36:18.003Z,10.85
2019-02-17T11:37:17.936Z,10.81
2019-02-17T11:38:17.978Z,10.92
2019-02-17T11:39:17.908Z,10.88
2019-02-17T11:40:17.893Z,10.88
2019-02-17T11:41:17.907Z,10.94
2019-02-17T11:42:17.872Z,10.91
2019-02-17T11:43:17.877Z,10.97
2019-02-17T11:44:17.848Z,11.02
2019-02-17T11:45:17.872Z,11.02
2019-02-17T11:46:17.817Z,11.11
2019-02-17T11:47:17.819Z,11.02
2019-02-17T11:48:17.812Z,11.09
2019-02-17T11:49:17.811Z,11.18
2019-02-17T11:50:17.787Z,11.19
2019-02-17T11:51:17.780Z,11.19
2019-02-17T11:52:17.751Z,11.28
2019-02-17T11:53:17.753Z,11.28
2019-02-17T11:54:17.775Z,11.36
2019-02-17T11:55:17.722Z,11.40
2019-02-17T11:56:17.703Z,11.46
2019-02-17T11:57:17.727Z,11.44
2019-02-17T11:58:17.685Z,11.42
2019-02-17T11:59:17.680Z,11.52
2019-02-17T12:00:17.678Z,11.61
2019-02-17T12:01:17.649Z,11.60
2019-02-17T12:02:24.708Z,11.67
2019-02-17T12:03:18.627Z,11.78
2019-02-17T12:04:17.621Z,11.72
2019-02-17T12:05:17.644Z,11.78
2019-02-17T12:06:17.634Z,11.83
2019-02-17T12:07:17.581Z,11.86
2019-02-17T12:08:17.578Z,11.90
2019-02-17T12:09:17.574Z,11.98
2019-02-17T12:10:17.548Z,12.07
2019-02-17T12:11:17.541Z,12.10
2019-02-17T12:12:17.538Z,12.09
2019-02-17T12:13:17.519Z,12.12
2019-02-17T12:14:17.513Z,12.20
2019-02-17T12:15:17.529Z,12.21
2019-02-17T12:16:17.518Z,12.29
2019-02-17T12:17:17.476Z,12.34
2019-02-17T12:18:17.457Z,12.29
2019-02-17T12:19:17.495Z,12.34
2019-02-17T12:20:17.440Z,12.41
2019-02-17T12:21:17.505Z,12.42
2019-02-17T12:22:17.413Z,12.49
2019-02-17T12:23:17.418Z,12.46
2019-02-17T12:24:17.427Z,12.50
2019-02-17T12:25:17.399Z,12.53
2019-02-17T12:26:17.389Z,12.56
2019-02-17T12:27:17.366Z,12.57
2019-02-17T12:28:17.351Z,12.64
2019-02-17T12:29:17.341Z,12.72
2019-02-17T12:30:17.356Z,12.75
2019-02-17T12:31:17.314Z,12.78
2019-02-17T12:32:17.305Z,12.74
2019-02-17T12:33:20.554Z,12.79
2019-02-17T12:34:17.279Z,12.78
2019-02-17T12:35:17.283Z,12.89
2019-02-17T12:36:17.288Z,12.89
2019-02-17T12:37:17.247Z,12.86
2019-02-17T12:38:17.260Z,12.93
2019-02-17T12:39:17.228Z,12.97
2019-02-17T12:40:17.225Z,12.93
2019-02-17T12:41:17.220Z,13.05
2019-02-17T12:42:17.225Z,13.00
2019-02-17T12:43:17.178Z,13.10
2019-02-17T12:44:17.173Z,13.15
2019-02-17T12:45:18.336Z,13.07
2019-02-17T12:46:17.152Z,13.15
2019-02-17T12:47:17.176Z,13.20
2019-02-17T12:48:17.136Z,13.23
2019-02-17T12:49:17.109Z,13.08
2019-02-17T12:50:17.106Z,13.20
2019-02-17T12:51:17.098Z,13.22
2019-02-17T12:52:17.104Z,13.36
2019-02-17T12:53:17.104Z,13.28
2019-02-17T12:54:17.086Z,13.32
2019-02-17T12:55:17.045Z,13.38
2019-02-17T12:56:17.048Z,13.55
2019-02-17T12:57:17.090Z,13.59
2019-02-17T12:58:17.016Z,13.59
2019-02-17T12:59:17.013Z,13.63